Terminal Aerodrome Forecast
Issued by NWS

Home | Current Version | Previous Version | Text Only | Print | Product List | Glossary On
Versions: 1 2 3 4 5 6 7 8 9 10 11 12 13
000
FTUS45 KREV 240500
TAFRNO
TAF
KRNO 240529Z 2406/2506 VRB04KT P6SM SCT200
     FM241700 19009KT P6SM SCT200
     FM242000 19014G24KT P6SM SCT200
     FM250200 20011KT P6SM FEW200=

USA.gov is the U.S. government's official web portal to all federal, state and local government web resources and services.